»·PEaware :: N72FA CL46-KNTD

N72FA :: CL46-KNTD

FLIGHT INFORMATION

Flight Status: Arrived
Operator: Privately registered:
United States
More flights under this callsign
Pilot: Fco Javier A. (25981)
Aircraft: CESSNA 172 SKYHAWK
(C172)
More flights by this aircraft type
Origin: CL46 Quail Lake Sky Park
Canada
Destination: KNTD Point Mugu NAS
United States
More flights between these airports :: More routes between these airports
Route: LAKE PIRU-FIM-VPCNG-VPCSU
File this flight plan on PilotEdge
Remarks: LEARNING ENGLISH SLOWLY PLEASE. NEW PILOT ON PE
Altitude:
(Current/Filed)
6,500ft
Speed:
(Current/Filed)
100kts
Departed: 06-Sep-19 09:06 PM
Arrived: 06-Sep-19 09:46 PM
Distance/Time
Traveled:
44nm/0:40
Distance/Time
To Go:
Arrived

Flight Plot

Page will automatically refresh every two minutes.

Flight plan parsing failed; only flown route is shown


Map Options




Map Legend


Flown Route
Filed Route
Departure Airport
Arrival Airport
Navaid (VOR, NDB)
Fix

Horizontal Profiles

Position Reports

Time Latitude Longitude Heading Altitude Ground
Speed
06-Sep-19 20:50 34.767328 -118.736143 74 3374ft 0kts
06-Sep-19 20:51 34.767328 -118.736143 74 3374ft 0kts
06-Sep-19 20:52 34.767328 -118.736143 74 3374ft 0kts
06-Sep-19 20:53 34.767328 -118.736143 74 3374ft 0kts
06-Sep-19 20:54 34.767328 -118.736143 74 3374ft 0kts
06-Sep-19 20:55 34.767328 -118.736143 74 3374ft 0kts
06-Sep-19 20:56 34.767328 -118.736143 74 3374ft 0kts
06-Sep-19 20:57 34.767328 -118.736143 74 3374ft 0kts
06-Sep-19 20:58 34.767328 -118.736143 74 3374ft 0kts
06-Sep-19 20:59 34.767328 -118.736143 74 3374ft 0kts
06-Sep-19 21:00 34.767328 -118.736143 74 3374ft 0kts
06-Sep-19 21:01 34.767352 -118.736077 53 3374ft 0kts
06-Sep-19 21:02 34.767529 -118.735909 28 3374ft 2kts
06-Sep-19 21:03 34.768143 -118.734905 100 3374ft 21kts
06-Sep-19 21:04 34.767040 -118.727396 116 3374ft 19kts
06-Sep-19 21:05 34.767906 -118.733452 280 3389ft 64kts
06-Sep-19 21:06 34.770301 -118.756851 276 3822ft 72kts
06-Sep-19 21:07 34.757583 -118.770928 186 4317ft 81kts
06-Sep-19 21:08 34.734149 -118.769335 182 4777ft 85kts
06-Sep-19 21:09 34.710058 -118.766165 173 5200ft 90kts
06-Sep-19 21:10 34.684137 -118.761602 177 5518ft 106kts
06-Sep-19 21:11 34.655373 -118.759230 178 5985ft 104kts
06-Sep-19 21:12 34.627065 -118.751244 165 6418ft 104kts
06-Sep-19 21:13 34.597737 -118.744742 182 6475ft 113kts
06-Sep-19 21:14 34.564914 -118.745790 182 6363ft 121kts
06-Sep-19 21:15 34.531515 -118.747547 190 6174ft 119kts
06-Sep-19 21:16 34.499139 -118.755930 192 5984ft 119kts
06-Sep-19 21:17 34.467392 -118.765497 212 5787ft 117kts
06-Sep-19 21:18 34.442396 -118.790148 224 5930ft 113kts
06-Sep-19 21:19 34.419934 -118.813869 219 6193ft 105kts
06-Sep-19 21:20 34.397320 -118.836646 224 6428ft 107kts
06-Sep-19 21:21 34.374160 -118.862005 221 6492ft 115kts
06-Sep-19 21:22 34.348167 -118.885469 216 6475ft 116kts
06-Sep-19 21:24 34.317425 -118.911947 218 6396ft 114kts
06-Sep-19 21:24 34.296105 -118.931554 219 5509ft 115kts
06-Sep-19 21:25 34.269994 -118.953810 220 4261ft 114kts
06-Sep-19 21:26 34.246897 -118.979141 219 3060ft 112kts
06-Sep-19 21:27 34.221509 -119.000548 212 2103ft 112kts
06-Sep-19 21:28 34.193142 -119.013238 184 2437ft 111kts
06-Sep-19 21:29 34.180891 -118.989880 32 2780ft 113kts
06-Sep-19 21:30 34.200070 -119.007586 250 3061ft 112kts
06-Sep-19 21:31 34.184161 -118.995109 52 3259ft 115kts
06-Sep-19 21:32 34.195227 -119.009063 214 3217ft 112kts
06-Sep-19 21:33 34.166485 -119.002404 130 3117ft 114kts
06-Sep-19 21:34 34.165675 -118.967385 41 3007ft 112kts
06-Sep-19 21:35 34.180728 -118.981670 224 2834ft 113kts
06-Sep-19 21:36 34.165371 -118.961416 55 2713ft 112kts
06-Sep-19 21:37 34.179002 -118.971967 212 2436ft 114kts
06-Sep-19 21:38 34.150961 -118.987307 209 1936ft 110kts
06-Sep-19 21:39 34.123699 -119.004127 207 1821ft 109kts
06-Sep-19 21:40 34.105953 -119.030475 261 2060ft 105kts
06-Sep-19 21:41 34.106214 -119.065734 282 2196ft 106kts
06-Sep-19 21:42 34.107422 -119.100475 241 1306ft 109kts
06-Sep-19 21:43 34.088478 -119.125089 266 536ft 90kts
06-Sep-19 21:44 34.102278 -119.140532 16 157ft 69kts
06-Sep-19 21:45 34.114854 -119.127065 43 10ft 35kts
06-Sep-19 21:46 34.114859 -119.124828 50 10ft 6kts
06-Sep-19 21:47 34.115904 -119.122077 111 10ft 0kts
06-Sep-19 21:48 34.115904 -119.122077 111 10ft 0kts

Navigation Log

Ident Type
Flight plan parsing failed, navigation log unavailable